Terminal Aerodrome Forecast
Issued by NWS

Home | Current Version | Previous Version | Text Only | Print | Product List | Glossary On
Versions: 1 2 3 4 5 6 7 8 9 10 11 12 13 14 15 16 17
000
FTUS44 KTSA 180531
TAFRVS
TAF
KRVS 180531Z 1806/1906 19004KT 6SM BR BKN004 OVC025
     FM181100 20003KT 4SM BR SCT003 BKN015
      TEMPO 1811/1815 1/4SM FG OVC003
     FM181500 20003KT P6SM SCT015
     FM181700 20006KT P6SM SKC=

USA.gov is the U.S. government's official web portal to all federal, state and local government web resources and services.